sensor_id;sensor_type;location;lat;lon;timestamp;P1;durP1;ratioP1;P2;durP2;ratioP2
23590;SDS011;11973;52.098;7.582;2023-11-22T00:00:10;11.20;;;10.25;;
23590;SDS011;11973;52.098;7.582;2023-11-22T00:02:37;11.15;;;10.27;;
23590;SDS011;11973;52.098;7.582;2023-11-22T00:05:04;11.77;;;10.73;;
23590;SDS011;11973;52.098;7.582;2023-11-22T00:07:30;11.05;;;10.18;;
23590;SDS011;11973;52.098;7.582;2023-11-22T00:09:57;11.65;;;10.63;;
23590;SDS011;11973;52.098;7.582;2023-11-22T00:12:23;11.68;;;10.68;;
23590;SDS011;11973;52.098;7.582;2023-11-22T00:14:50;11.15;;;10.15;;
23590;SDS011;11973;52.098;7.582;2023-11-22T00:17:16;11.82;;;10.77;;
23590;SDS011;11973;52.098;7.582;2023-11-22T00:19:45;12.00;;;10.90;;
23590;SDS011;11973;52.098;7.582;2023-11-22T00:22:12;11.27;;;10.30;;
23590;SDS011;11973;52.098;7.582;2023-11-22T00:24:40;12.73;;;11.25;;
23590;SDS011;11973;52.098;7.582;2023-11-22T00:27:07;11.95;;;10.90;;
23590;SDS011;11973;52.098;7.582;2023-11-22T00:29:33;12.48;;;11.18;;
23590;SDS011;11973;52.098;7.582;2023-11-22T05:17:50;11.65;;;10.40;;
23590;SDS011;11973;52.098;7.582;2023-11-22T05:20:16;12.10;;;10.90;;
23590;SDS011;11973;52.098;7.582;2023-11-22T05:22:42;11.43;;;9.90;;
23590;SDS011;11973;52.098;7.582;2023-11-22T05:25:07;12.95;;;10.93;;
23590;SDS011;11973;52.098;7.582;2023-11-22T05:27:33;11.88;;;10.50;;
23590;SDS011;11973;52.098;7.582;2023-11-22T05:29:59;13.25;;;11.80;;
23590;SDS011;11973;52.098;7.582;2023-11-22T05:32:26;23.00;;;18.63;;
23590;SDS011;11973;52.098;7.582;2023-11-22T05:34:52;18.45;;;13.48;;
23590;SDS011;11973;52.098;7.582;2023-11-22T05:37:18;12.55;;;11.27;;
23590;SDS011;11973;52.098;7.582;2023-11-22T05:39:45;14.27;;;11.18;;
23590;SDS011;11973;52.098;7.582;2023-11-22T05:42:11;14.02;;;11.02;;
23590;SDS011;11973;52.098;7.582;2023-11-22T05:44:37;14.07;;;11.98;;
23590;SDS011;11973;52.098;7.582;2023-11-22T05:47:03;15.98;;;12.25;;
23590;SDS011;11973;52.098;7.582;2023-11-22T05:49:29;17.52;;;12.35;;
23590;SDS011;11973;52.098;7.582;2023-11-22T05:51:54;17.23;;;11.98;;
23590;SDS011;11973;52.098;7.582;2023-11-22T05:54:20;14.70;;;12.00;;
23590;SDS011;11973;52.098;7.582;2023-11-22T05:56:46;17.08;;;12.43;;
23590;SDS011;11973;52.098;7.582;2023-11-22T05:59:11;14.52;;;11.75;;
23590;SDS011;11973;52.098;7.582;2023-11-22T06:01:37;15.48;;;11.82;;
23590;SDS011;11973;52.098;7.582;2023-11-22T06:04:03;13.77;;;12.15;;
23590;SDS011;11973;52.098;7.582;2023-11-22T06:06:29;14.63;;;11.55;;
23590;SDS011;11973;52.098;7.582;2023-11-22T06:08:55;16.95;;;12.35;;
23590;SDS011;11973;52.098;7.582;2023-11-22T06:11:21;19.50;;;12.75;;
23590;SDS011;11973;52.098;7.582;2023-11-22T06:13:46;18.75;;;12.93;;
23590;SDS011;11973;52.098;7.582;2023-11-22T06:16:12;16.48;;;12.25;;
23590;SDS011;11973;52.098;7.582;2023-11-22T06:18:38;15.95;;;12.80;;
23590;SDS011;11973;52.098;7.582;2023-11-22T06:21:06;18.17;;;13.73;;
23590;SDS011;11973;52.098;7.582;2023-11-22T06:23:32;15.07;;;12.15;;
23590;SDS011;11973;52.098;7.582;2023-11-22T06:25:58;15.98;;;12.70;;
23590;SDS011;11973;52.098;7.582;2023-11-22T06:28:24;18.38;;;12.70;;
23590;SDS011;11973;52.098;7.582;2023-11-22T06:30:49;18.33;;;13.35;;
23590;SDS011;11973;52.098;7.582;2023-11-22T06:33:15;20.35;;;15.30;;
23590;SDS011;11973;52.098;7.582;2023-11-22T06:35:41;18.38;;;14.32;;
23590;SDS011;11973;52.098;7.582;2023-11-22T06:38:07;18.83;;;14.65;;
23590;SDS011;11973;52.098;7.582;2023-11-22T06:40:34;21.83;;;15.80;;
23590;SDS011;11973;52.098;7.582;2023-11-22T06:42:59;20.02;;;15.82;;
23590;SDS011;11973;52.098;7.582;2023-11-22T06:45:25;20.15;;;15.77;;
23590;SDS011;11973;52.098;7.582;2023-11-22T06:47:51;18.20;;;14.43;;
23590;SDS011;11973;52.098;7.582;2023-11-22T06:50:18;19.92;;;14.32;;
23590;SDS011;11973;52.098;7.582;2023-11-22T06:52:43;16.88;;;13.00;;
23590;SDS011;11973;52.098;7.582;2023-11-22T06:55:11;20.75;;;13.68;;
23590;SDS011;11973;52.098;7.582;2023-11-22T06:57:37;18.98;;;12.90;;
23590;SDS011;11973;52.098;7.582;2023-11-22T07:00:03;19.45;;;13.32;;
23590;SDS011;11973;52.098;7.582;2023-11-22T07:02:33;18.02;;;12.82;;
23590;SDS011;11973;52.098;7.582;2023-11-22T07:05:00;19.70;;;13.48;;
23590;SDS011;11973;52.098;7.582;2023-11-22T07:07:27;19.67;;;13.55;;
23590;SDS011;11973;52.098;7.582;2023-11-22T07:09:54;18.38;;;13.30;;
23590;SDS011;11973;52.098;7.582;2023-11-22T07:12:23;17.30;;;12.60;;
23590;SDS011;11973;52.098;7.582;2023-11-22T07:14:48;15.27;;;12.02;;
23590;SDS011;11973;52.098;7.582;2023-11-22T07:17:15;18.25;;;12.18;;
23590;SDS011;11973;52.098;7.582;2023-11-22T07:19:43;15.40;;;12.15;;
23590;SDS011;11973;52.098;7.582;2023-11-22T07:22:17;16.38;;;12.55;;
23590;SDS011;11973;52.098;7.582;2023-11-22T07:24:47;17.75;;;13.55;;
23590;SDS011;11973;52.098;7.582;2023-11-22T07:27:16;17.73;;;12.75;;
23590;SDS011;11973;52.098;7.582;2023-11-22T07:29:44;23.15;;;13.98;;
23590;SDS011;11973;52.098;7.582;2023-11-22T07:32:11;19.35;;;13.90;;
23590;SDS011;11973;52.098;7.582;2023-11-22T07:34:37;23.48;;;15.48;;
23590;SDS011;11973;52.098;7.582;2023-11-22T07:37:05;20.10;;;14.27;;
23590;SDS011;11973;52.098;7.582;2023-11-22T07:39:34;21.83;;;15.98;;
23590;SDS011;11973;52.098;7.582;2023-11-22T07:42:04;25.67;;;16.08;;
23590;SDS011;11973;52.098;7.582;2023-11-22T07:44:33;27.48;;;16.63;;
23590;SDS011;11973;52.098;7.582;2023-11-22T07:47:00;25.90;;;16.13;;
23590;SDS011;11973;52.098;7.582;2023-11-22T07:49:27;24.92;;;16.83;;
23590;SDS011;11973;52.098;7.582;2023-11-22T07:51:54;25.60;;;16.08;;
23590;SDS011;11973;52.098;7.582;2023-11-22T07:54:21;28.35;;;17.15;;
23590;SDS011;11973;52.098;7.582;2023-11-22T07:56:50;24.45;;;16.38;;
23590;SDS011;11973;52.098;7.582;2023-11-22T07:59:19;28.00;;;16.27;;
23590;SDS011;11973;52.098;7.582;2023-11-22T08:01:45;25.17;;;16.42;;
23590;SDS011;11973;52.098;7.582;2023-11-22T08:04:14;28.60;;;16.73;;
23590;SDS011;11973;52.098;7.582;2023-11-22T08:06:42;26.45;;;16.17;;
23590;SDS011;11973;52.098;7.582;2023-11-22T08:09:08;27.02;;;16.75;;
23590;SDS011;11973;52.098;7.582;2023-11-22T08:11:34;27.48;;;16.80;;
23590;SDS011;11973;52.098;7.582;2023-11-22T08:14:01;25.40;;;16.25;;
23590;SDS011;11973;52.098;7.582;2023-11-22T08:16:27;26.85;;;17.27;;
23590;SDS011;11973;52.098;7.582;2023-11-22T08:18:53;27.75;;;16.75;;
23590;SDS011;11973;52.098;7.582;2023-11-22T08:21:19;32.20;;;17.40;;
23590;SDS011;11973;52.098;7.582;2023-11-22T08:23:45;30.23;;;17.98;;
23590;SDS011;11973;52.098;7.582;2023-11-22T08:26:14;27.58;;;17.40;;
23590;SDS011;11973;52.098;7.582;2023-11-22T08:28:40;37.80;;;21.65;;
23590;SDS011;11973;52.098;7.582;2023-11-22T08:31:07;64.80;;;32.40;;
23590;SDS011;11973;52.098;7.582;2023-11-22T08:33:36;50.72;;;26.67;;
23590;SDS011;11973;52.098;7.582;2023-11-22T08:36:03;40.38;;;24.45;;
23590;SDS011;11973;52.098;7.582;2023-11-22T08:38:30;43.40;;;25.10;;
23590;SDS011;11973;52.098;7.582;2023-11-22T08:41:03;36.63;;;22.67;;
23590;SDS011;11973;52.098;7.582;2023-11-22T08:43:30;36.90;;;22.23;;
23590;SDS011;11973;52.098;7.582;2023-11-22T08:45:57;32.95;;;19.83;;
23590;SDS011;11973;52.098;7.582;2023-11-22T08:48:23;33.05;;;19.45;;
23590;SDS011;11973;52.098;7.582;2023-11-22T08:50:49;37.67;;;21.40;;
23590;SDS011;11973;52.098;7.582;2023-11-22T08:53:15;38.15;;;20.58;;
23590;SDS011;11973;52.098;7.582;2023-11-22T08:55:43;34.38;;;20.45;;
23590;SDS011;11973;52.098;7.582;2023-11-22T08:58:10;33.22;;;20.10;;
23590;SDS011;11973;52.098;7.582;2023-11-22T09:00:36;37.17;;;21.63;;
23590;SDS011;11973;52.098;7.582;2023-11-22T09:03:02;37.97;;;22.67;;
23590;SDS011;11973;52.098;7.582;2023-11-22T09:05:30;37.65;;;21.20;;
23590;SDS011;11973;52.098;7.582;2023-11-22T09:07:56;37.75;;;21.65;;
23590;SDS011;11973;52.098;7.582;2023-11-22T09:10:23;32.17;;;19.98;;
23590;SDS011;11973;52.098;7.582;2023-11-22T09:12:49;35.05;;;20.92;;
23590;SDS011;11973;52.098;7.582;2023-11-22T09:15:16;35.28;;;21.38;;
23590;SDS011;11973;52.098;7.582;2023-11-22T09:17:43;39.10;;;21.50;;
23590;SDS011;11973;52.098;7.582;2023-11-22T09:20:11;36.38;;;22.15;;
23590;SDS011;11973;52.098;7.582;2023-11-22T09:22:48;38.50;;;21.73;;
23590;SDS011;11973;52.098;7.582;2023-11-22T09:25:15;40.33;;;21.75;;
23590;SDS011;11973;52.098;7.582;2023-11-22T09:27:44;38.10;;;22.92;;
23590;SDS011;11973;52.098;7.582;2023-11-22T09:30:15;38.55;;;22.00;;
23590;SDS011;11973;52.098;7.582;2023-11-22T09:33:07;37.42;;;21.88;;
23590;SDS011;11973;52.098;7.582;2023-11-22T09:35:34;37.55;;;21.65;;
23590;SDS011;11973;52.098;7.582;2023-11-22T09:38:04;34.22;;;20.85;;
23590;SDS011;11973;52.098;7.582;2023-11-22T09:40:40;29.88;;;19.73;;
23590;SDS011;11973;52.098;7.582;2023-11-22T09:43:07;27.98;;;19.40;;
23590;SDS011;11973;52.098;7.582;2023-11-22T09:45:33;27.27;;;17.50;;
23590;SDS011;11973;52.098;7.582;2023-11-22T09:48:00;21.35;;;16.67;;
23590;SDS011;11973;52.098;7.582;2023-11-22T09:50:40;23.45;;;17.27;;
23590;SDS011;11973;52.098;7.582;2023-11-22T09:56:26;18.65;;;15.48;;
23590;SDS011;11973;52.098;7.582;2023-11-22T09:58:53;21.30;;;15.50;;
23590;SDS011;11973;52.098;7.582;2023-11-22T10:01:24;17.98;;;14.88;;
23590;SDS011;11973;52.098;7.582;2023-11-22T10:03:50;15.77;;;14.02;;
23590;SDS011;11973;52.098;7.582;2023-11-22T10:06:16;15.48;;;13.75;;
23590;SDS011;11973;52.098;7.582;2023-11-22T10:08:43;16.27;;;14.57;;
23590;SDS011;11973;52.098;7.582;2023-11-22T10:11:14;14.55;;;13.05;;
23590;SDS011;11973;52.098;7.582;2023-11-22T10:13:43;14.32;;;12.80;;
23590;SDS011;11973;52.098;7.582;2023-11-22T10:16:11;14.80;;;13.30;;
23590;SDS011;11973;52.098;7.582;2023-11-22T10:18:45;14.38;;;12.98;;
23590;SDS011;11973;52.098;7.582;2023-11-22T10:23:46;13.73;;;12.45;;
23590;SDS011;11973;52.098;7.582;2023-11-22T10:26:17;13.68;;;12.38;;
23590;SDS011;11973;52.098;7.582;2023-11-22T10:28:43;14.35;;;12.35;;
23590;SDS011;11973;52.098;7.582;2023-11-22T10:31:08;13.98;;;12.70;;
23590;SDS011;11973;52.098;7.582;2023-11-22T10:33:42;12.80;;;11.70;;
23590;SDS011;11973;52.098;7.582;2023-11-22T10:36:08;12.93;;;11.82;;
23590;SDS011;11973;52.098;7.582;2023-11-22T10:38:35;12.23;;;11.18;;
23590;SDS011;11973;52.098;7.582;2023-11-22T10:41:07;11.40;;;10.40;;
23590;SDS011;11973;52.098;7.582;2023-11-22T10:43:34;10.15;;;9.45;;
23590;SDS011;11973;52.098;7.582;2023-11-22T10:46:03;11.05;;;10.15;;
23590;SDS011;11973;52.098;7.582;2023-11-22T10:48:34;10.40;;;9.60;;
23590;SDS011;11973;52.098;7.582;2023-11-22T10:51:01;10.13;;;9.38;;
23590;SDS011;11973;52.098;7.582;2023-11-22T10:53:32;8.93;;;8.35;;
23590;SDS011;11973;52.098;7.582;2023-11-22T10:56:07;7.78;;;7.47;;
23590;SDS011;11973;52.098;7.582;2023-11-22T10:58:47;7.55;;;7.15;;
23590;SDS011;11973;52.098;7.582;2023-11-22T11:01:15;7.72;;;7.30;;
23590;SDS011;11973;52.098;7.582;2023-11-22T11:04:06;7.80;;;7.40;;
23590;SDS011;11973;52.098;7.582;2023-11-22T11:06:51;6.53;;;6.00;;
23590;SDS011;11973;52.098;7.582;2023-11-22T11:09:19;8.15;;;7.55;;
23590;SDS011;11973;52.098;7.582;2023-11-22T11:11:47;7.18;;;6.78;;
23590;SDS011;11973;52.098;7.582;2023-11-22T11:14:13;7.35;;;7.05;;
23590;SDS011;11973;52.098;7.582;2023-11-22T11:16:40;6.65;;;6.35;;
23590;SDS011;11973;52.098;7.582;2023-11-22T11:19:12;7.35;;;6.75;;
23590;SDS011;11973;52.098;7.582;2023-11-22T11:21:39;6.65;;;6.38;;
23590;SDS011;11973;52.098;7.582;2023-11-22T11:24:06;6.72;;;6.45;;
23590;SDS011;11973;52.098;7.582;2023-11-22T11:26:32;5.95;;;5.55;;
23590;SDS011;11973;52.098;7.582;2023-11-22T11:29:01;6.05;;;5.75;;
23590;SDS011;11973;52.098;7.582;2023-11-22T11:31:32;6.25;;;6.05;;
23590;SDS011;11973;52.098;7.582;2023-11-22T11:34:00;5.50;;;5.40;;
23590;SDS011;11973;52.098;7.582;2023-11-22T11:36:30;5.32;;;5.10;;
23590;SDS011;11973;52.098;7.582;2023-11-22T11:39:01;5.63;;;5.38;;
23590;SDS011;11973;52.098;7.582;2023-11-22T11:41:34;5.72;;;5.53;;
23590;SDS011;11973;52.098;7.582;2023-11-22T11:44:02;5.68;;;5.55;;
23590;SDS011;11973;52.098;7.582;2023-11-22T11:46:32;5.20;;;5.10;;
23590;SDS011;11973;52.098;7.582;2023-11-22T11:48:58;5.70;;;5.40;;
23590;SDS011;11973;52.098;7.582;2023-11-22T11:51:25;4.95;;;4.65;;
23590;SDS011;11973;52.098;7.582;2023-11-22T11:53:52;5.05;;;4.90;;
23590;SDS011;11973;52.098;7.582;2023-11-22T11:56:19;4.38;;;4.38;;
23590;SDS011;11973;52.098;7.582;2023-11-22T11:58:45;3.85;;;3.75;;
23590;SDS011;11973;52.098;7.582;2023-11-22T12:01:14;4.38;;;4.20;;
23590;SDS011;11973;52.098;7.582;2023-11-22T12:03:41;4.00;;;3.97;;
23590;SDS011;11973;52.098;7.582;2023-11-22T12:06:09;3.42;;;3.42;;
23590;SDS011;11973;52.098;7.582;2023-11-22T12:08:35;2.92;;;2.80;;
23590;SDS011;11973;52.098;7.582;2023-11-22T12:11:03;3.00;;;2.80;;
23590;SDS011;11973;52.098;7.582;2023-11-22T12:13:33;2.60;;;2.60;;
23590;SDS011;11973;52.098;7.582;2023-11-22T12:16:03;2.30;;;2.30;;
23590;SDS011;11973;52.098;7.582;2023-11-22T12:18:40;2.33;;;2.33;;
23590;SDS011;11973;52.098;7.582;2023-11-22T12:21:08;2.25;;;2.25;;
23590;SDS011;11973;52.098;7.582;2023-11-22T12:23:39;1.98;;;1.98;;
23590;SDS011;11973;52.098;7.582;2023-11-22T12:26:13;2.20;;;2.20;;
23590;SDS011;11973;52.098;7.582;2023-11-22T12:28:40;2.83;;;2.80;;
23590;SDS011;11973;52.098;7.582;2023-11-22T12:31:11;2.28;;;2.28;;
23590;SDS011;11973;52.098;7.582;2023-11-22T12:33:38;2.90;;;2.80;;
23590;SDS011;11973;52.098;7.582;2023-11-22T12:36:06;2.53;;;2.53;;
23590;SDS011;11973;52.098;7.582;2023-11-22T12:38:36;2.45;;;2.35;;
23590;SDS011;11973;52.098;7.582;2023-11-22T12:41:02;2.40;;;2.30;;
23590;SDS011;11973;52.098;7.582;2023-11-22T12:43:29;2.72;;;2.72;;
23590;SDS011;11973;52.098;7.582;2023-11-22T12:46:05;2.53;;;2.45;;
23590;SDS011;11973;52.098;7.582;2023-11-22T12:48:32;2.58;;;2.47;;
23590;SDS011;11973;52.098;7.582;2023-11-22T12:50:58;2.35;;;2.20;;
23590;SDS011;11973;52.098;7.582;2023-11-22T12:53:25;1.80;;;1.80;;
23590;SDS011;11973;52.098;7.582;2023-11-22T12:55:53;1.58;;;1.58;;
23590;SDS011;11973;52.098;7.582;2023-11-22T12:58:21;1.98;;;1.75;;
23590;SDS011;11973;52.098;7.582;2023-11-22T13:00:49;2.25;;;2.03;;
23590;SDS011;11973;52.098;7.582;2023-11-22T13:03:15;1.83;;;1.75;;
23590;SDS011;11973;52.098;7.582;2023-11-22T13:05:42;1.70;;;1.60;;
23590;SDS011;11973;52.098;7.582;2023-11-22T13:08:09;1.88;;;1.77;;
23590;SDS011;11973;52.098;7.582;2023-11-22T13:10:38;2.08;;;2.08;;
23590;SDS011;11973;52.098;7.582;2023-11-22T13:13:13;2.10;;;2.00;;
23590;SDS011;11973;52.098;7.582;2023-11-22T13:15:39;1.50;;;1.50;;
23590;SDS011;11973;52.098;7.582;2023-11-22T13:18:07;1.58;;;1.58;;
23590;SDS011;11973;52.098;7.582;2023-11-22T13:20:34;4.50;;;2.03;;
23590;SDS011;11973;52.098;7.582;2023-11-22T13:23:00;2.22;;;2.20;;
23590;SDS011;11973;52.098;7.582;2023-11-22T13:25:27;2.08;;;1.98;;
23590;SDS011;11973;52.098;7.582;2023-11-22T13:27:53;1.90;;;1.90;;
23590;SDS011;11973;52.098;7.582;2023-11-22T13:30:21;1.67;;;1.67;;
23590;SDS011;11973;52.098;7.582;2023-11-22T13:32:57;2.13;;;1.98;;
23590;SDS011;11973;52.098;7.582;2023-11-22T13:35:26;2.13;;;2.00;;
23590;SDS011;11973;52.098;7.582;2023-11-22T13:38:00;2.40;;;2.20;;
23590;SDS011;11973;52.098;7.582;2023-11-22T13:40:27;2.60;;;1.90;;
23590;SDS011;11973;52.098;7.582;2023-11-22T13:42:56;2.00;;;1.85;;
23590;SDS011;11973;52.098;7.582;2023-11-22T13:45:22;2.30;;;2.10;;
23590;SDS011;11973;52.098;7.582;2023-11-22T13:47:49;2.03;;;2.03;;
23590;SDS011;11973;52.098;7.582;2023-11-22T13:50:18;2.45;;;2.45;;
23590;SDS011;11973;52.098;7.582;2023-11-22T13:52:44;2.38;;;2.38;;
23590;SDS011;11973;52.098;7.582;2023-11-22T13:55:11;2.63;;;2.40;;
23590;SDS011;11973;52.098;7.582;2023-11-22T13:57:38;1.88;;;1.88;;
23590;SDS011;11973;52.098;7.582;2023-11-22T14:00:05;1.58;;;1.58;;
23590;SDS011;11973;52.098;7.582;2023-11-22T14:02:36;2.17;;;2.00;;
23590;SDS011;11973;52.098;7.582;2023-11-22T14:05:02;2.40;;;2.30;;
23590;SDS011;11973;52.098;7.582;2023-11-22T14:07:35;2.03;;;2.03;;
23590;SDS011;11973;52.098;7.582;2023-11-22T14:10:02;2.25;;;2.20;;
23590;SDS011;11973;52.098;7.582;2023-11-22T14:12:28;2.30;;;2.25;;
23590;SDS011;11973;52.098;7.582;2023-11-22T14:14:55;2.10;;;2.10;;
23590;SDS011;11973;52.098;7.582;2023-11-22T14:17:22;2.30;;;2.30;;
23590;SDS011;11973;52.098;7.582;2023-11-22T14:19:49;2.42;;;2.42;;
23590;SDS011;11973;52.098;7.582;2023-11-22T14:22:15;2.10;;;2.10;;
23590;SDS011;11973;52.098;7.582;2023-11-22T14:24:42;2.33;;;2.33;;
23590;SDS011;11973;52.098;7.582;2023-11-22T14:27:10;2.75;;;2.65;;
23590;SDS011;11973;52.098;7.582;2023-11-22T14:29:37;2.80;;;2.70;;
23590;SDS011;11973;52.098;7.582;2023-11-22T14:32:03;2.60;;;2.50;;
23590;SDS011;11973;52.098;7.582;2023-11-22T14:34:29;2.40;;;2.38;;
23590;SDS011;11973;52.098;7.582;2023-11-22T14:36:55;2.88;;;2.78;;
23590;SDS011;11973;52.098;7.582;2023-11-22T14:39:21;3.03;;;2.97;;
23590;SDS011;11973;52.098;7.582;2023-11-22T14:41:47;3.20;;;3.10;;
23590;SDS011;11973;52.098;7.582;2023-11-22T14:44:13;3.17;;;2.90;;
23590;SDS011;11973;52.098;7.582;2023-11-22T14:46:39;4.85;;;3.28;;
23590;SDS011;11973;52.098;7.582;2023-11-22T14:49:05;2.92;;;2.83;;
23590;SDS011;11973;52.098;7.582;2023-11-22T14:51:32;3.22;;;3.13;;
23590;SDS011;11973;52.098;7.582;2023-11-22T14:53:58;3.28;;;3.28;;
23590;SDS011;11973;52.098;7.582;2023-11-22T14:56:24;3.60;;;3.40;;
23590;SDS011;11973;52.098;7.582;2023-11-22T14:58:50;3.08;;;3.08;;
23590;SDS011;11973;52.098;7.582;2023-11-22T15:01:20;3.60;;;3.42;;
23590;SDS011;11973;52.098;7.582;2023-11-22T15:03:46;3.35;;;3.35;;
23590;SDS011;11973;52.098;7.582;2023-11-22T15:06:14;3.42;;;3.33;;
23590;SDS011;11973;52.098;7.582;2023-11-22T15:08:40;3.60;;;3.50;;
23590;SDS011;11973;52.098;7.582;2023-11-22T15:11:07;3.47;;;3.47;;
23590;SDS011;11973;52.098;7.582;2023-11-22T15:13:34;3.70;;;3.70;;
23590;SDS011;11973;52.098;7.582;2023-11-22T15:16:01;3.50;;;3.50;;
23590;SDS011;11973;52.098;7.582;2023-11-22T15:18:27;4.00;;;3.85;;
23590;SDS011;11973;52.098;7.582;2023-11-22T15:20:53;4.00;;;3.88;;
23590;SDS011;11973;52.098;7.582;2023-11-22T15:23:18;3.70;;;3.60;;
23590;SDS011;11973;52.098;7.582;2023-11-22T15:25:47;4.20;;;4.10;;
23590;SDS011;11973;52.098;7.582;2023-11-22T15:28:13;4.22;;;4.13;;
23590;SDS011;11973;52.098;7.582;2023-11-22T15:30:51;3.75;;;3.65;;
23590;SDS011;11973;52.098;7.582;2023-11-22T15:33:25;3.63;;;3.63;;
23590;SDS011;11973;52.098;7.582;2023-11-22T15:35:51;3.97;;;3.88;;
23590;SDS011;11973;52.098;7.582;2023-11-22T15:38:18;3.78;;;3.78;;
23590;SDS011;11973;52.098;7.582;2023-11-22T15:40:44;3.60;;;3.50;;
23590;SDS011;11973;52.098;7.582;2023-11-22T15:43:10;3.90;;;3.83;;
23590;SDS011;11973;52.098;7.582;2023-11-22T15:45:37;3.97;;;3.88;;
23590;SDS011;11973;52.098;7.582;2023-11-22T15:48:04;4.28;;;4.05;;
23590;SDS011;11973;52.098;7.582;2023-11-22T15:50:30;4.28;;;3.97;;
23590;SDS011;11973;52.098;7.582;2023-11-22T15:52:57;3.75;;;3.65;;
23590;SDS011;11973;52.098;7.582;2023-11-22T15:55:23;3.75;;;3.65;;
23590;SDS011;11973;52.098;7.582;2023-11-22T15:57:50;4.15;;;4.10;;
23590;SDS011;11973;52.098;7.582;2023-11-22T16:00:16;4.28;;;4.10;;
23590;SDS011;11973;52.098;7.582;2023-11-22T16:02:43;3.92;;;3.83;;
23590;SDS011;11973;52.098;7.582;2023-11-22T16:05:09;3.75;;;3.65;;
23590;SDS011;11973;52.098;7.582;2023-11-22T16:07:35;4.22;;;4.13;;
23590;SDS011;11973;52.098;7.582;2023-11-22T16:10:00;4.60;;;4.50;;
23590;SDS011;11973;52.098;7.582;2023-11-22T16:12:26;4.65;;;4.55;;
23590;SDS011;11973;52.098;7.582;2023-11-22T16:14:52;4.60;;;4.53;;
23590;SDS011;11973;52.098;7.582;2023-11-22T16:17:18;4.30;;;4.20;;
23590;SDS011;11973;52.098;7.582;2023-11-22T16:19:47;4.95;;;4.75;;
23590;SDS011;11973;52.098;7.582;2023-11-22T16:22:13;5.15;;;4.95;;
23590;SDS011;11973;52.098;7.582;2023-11-22T16:24:39;4.32;;;4.22;;
23590;SDS011;11973;52.098;7.582;2023-11-22T16:27:05;4.85;;;4.65;;
23590;SDS011;11973;52.098;7.582;2023-11-22T16:29:32;5.30;;;5.10;;
23590;SDS011;11973;52.098;7.582;2023-11-22T16:31:58;5.15;;;4.90;;
23590;SDS011;11973;52.098;7.582;2023-11-22T16:34:26;5.65;;;5.28;;
23590;SDS011;11973;52.098;7.582;2023-11-22T16:36:53;5.28;;;4.85;;
23590;SDS011;11973;52.098;7.582;2023-11-22T16:39:18;5.00;;;4.70;;
23590;SDS011;11973;52.098;7.582;2023-11-22T16:41:46;5.05;;;4.75;;
23590;SDS011;11973;52.098;7.582;2023-11-22T16:44:13;4.25;;;4.15;;
23590;SDS011;11973;52.098;7.582;2023-11-22T16:46:39;4.50;;;4.40;;
23590;SDS011;11973;52.098;7.582;2023-11-22T16:49:06;4.65;;;4.43;;
23590;SDS011;11973;52.098;7.582;2023-11-22T16:51:33;4.13;;;4.03;;
23590;SDS011;11973;52.098;7.582;2023-11-22T16:54:00;4.63;;;4.43;;
23590;SDS011;11973;52.098;7.582;2023-11-22T16:56:26;4.70;;;4.60;;
23590;SDS011;11973;52.098;7.582;2023-11-22T16:58:51;5.10;;;4.95;;
23590;SDS011;11973;52.098;7.582;2023-11-22T17:01:17;4.60;;;4.50;;
23590;SDS011;11973;52.098;7.582;2023-11-22T17:03:43;5.30;;;5.07;;
23590;SDS011;11973;52.098;7.582;2023-11-22T17:06:10;4.93;;;4.72;;
23590;SDS011;11973;52.098;7.582;2023-11-22T17:08:36;4.70;;;4.68;;
23590;SDS011;11973;52.098;7.582;2023-11-22T17:11:01;4.55;;;4.43;;
23590;SDS011;11973;52.098;7.582;2023-11-22T17:13:27;5.30;;;5.00;;
23590;SDS011;11973;52.098;7.582;2023-11-22T17:15:53;6.30;;;5.28;;
23590;SDS011;11973;52.098;7.582;2023-11-22T17:18:20;5.75;;;5.25;;
23590;SDS011;11973;52.098;7.582;2023-11-22T17:20:47;5.07;;;4.78;;
23590;SDS011;11973;52.098;7.582;2023-11-22T17:23:14;4.72;;;4.53;;
23590;SDS011;11973;52.098;7.582;2023-11-22T17:25:40;5.43;;;5.15;;
23590;SDS011;11973;52.098;7.582;2023-11-22T17:28:07;5.03;;;4.93;;
23590;SDS011;11973;52.098;7.582;2023-11-22T17:30:32;4.93;;;4.72;;
23590;SDS011;11973;52.098;7.582;2023-11-22T17:32:58;4.97;;;4.85;;
23590;SDS011;11973;52.098;7.582;2023-11-22T17:35:24;5.45;;;5.15;;
23590;SDS011;11973;52.098;7.582;2023-11-22T17:37:50;5.55;;;5.05;;
23590;SDS011;11973;52.098;7.582;2023-11-22T17:40:19;5.05;;;4.85;;
23590;SDS011;11973;52.098;7.582;2023-11-22T17:42:45;9.43;;;8.80;;
23590;SDS011;11973;52.098;7.582;2023-11-22T17:45:11;6.13;;;5.72;;
23590;SDS011;11973;52.098;7.582;2023-11-22T17:47:38;6.68;;;6.28;;
23590;SDS011;11973;52.098;7.582;2023-11-22T17:50:04;4.75;;;4.55;;
23590;SDS011;11973;52.098;7.582;2023-11-22T17:52:30;6.22;;;5.93;;
23590;SDS011;11973;52.098;7.582;2023-11-22T17:54:57;13.10;;;11.90;;
23590;SDS011;11973;52.098;7.582;2023-11-22T17:57:23;19.23;;;17.20;;
23590;SDS011;11973;52.098;7.582;2023-11-22T17:59:49;19.20;;;17.27;;
23590;SDS011;11973;52.098;7.582;2023-11-22T18:02:15;8.10;;;7.40;;
23590;SDS011;11973;52.098;7.582;2023-11-22T18:04:41;5.97;;;5.10;;
23590;SDS011;11973;52.098;7.582;2023-11-22T18:07:08;5.30;;;5.10;;
23590;SDS011;11973;52.098;7.582;2023-11-22T18:09:33;5.35;;;5.00;;
23590;SDS011;11973;52.098;7.582;2023-11-22T18:11:59;4.43;;;4.32;;
23590;SDS011;11973;52.098;7.582;2023-11-22T18:14:25;4.50;;;4.40;;
23590;SDS011;11973;52.098;7.582;2023-11-22T18:16:52;5.20;;;4.88;;
23590;SDS011;11973;52.098;7.582;2023-11-22T18:19:18;4.50;;;4.22;;
23590;SDS011;11973;52.098;7.582;2023-11-22T18:21:45;4.72;;;4.50;;
23590;SDS011;11973;52.098;7.582;2023-11-22T18:24:10;5.07;;;4.78;;
23590;SDS011;11973;52.098;7.582;2023-11-22T18:26:36;4.68;;;4.47;;
23590;SDS011;11973;52.098;7.582;2023-11-22T18:29:02;4.97;;;4.78;;
23590;SDS011;11973;52.098;7.582;2023-11-22T18:31:31;5.50;;;5.10;;
23590;SDS011;11973;52.098;7.582;2023-11-22T18:33:57;5.88;;;5.60;;
23590;SDS011;11973;52.098;7.582;2023-11-22T18:36:23;12.68;;;11.20;;
23590;SDS011;11973;52.098;7.582;2023-11-22T18:38:50;9.00;;;8.18;;
23590;SDS011;11973;52.098;7.582;2023-11-22T18:41:15;25.80;;;23.15;;
23590;SDS011;11973;52.098;7.582;2023-11-22T18:43:44;31.83;;;28.50;;
23590;SDS011;11973;52.098;7.582;2023-11-22T18:46:09;9.27;;;8.68;;
23590;SDS011;11973;52.098;7.582;2023-11-22T18:48:35;10.60;;;9.70;;
23590;SDS011;11973;52.098;7.582;2023-11-22T18:51:01;5.95;;;5.57;;
23590;SDS011;11973;52.098;7.582;2023-11-22T18:53:44;21.45;;;19.40;;
23590;SDS011;11973;52.098;7.582;2023-11-22T18:56:10;19.80;;;17.75;;
23590;SDS011;11973;52.098;7.582;2023-11-22T18:58:37;14.93;;;13.43;;
23590;SDS011;11973;52.098;7.582;2023-11-22T19:01:03;12.23;;;11.05;;
23590;SDS011;11973;52.098;7.582;2023-11-22T19:03:29;19.75;;;17.83;;
23590;SDS011;11973;52.098;7.582;2023-11-22T19:05:55;8.48;;;7.97;;
23590;SDS011;11973;52.098;7.582;2023-11-22T19:08:21;16.85;;;14.60;;
23590;SDS011;11973;52.098;7.582;2023-11-22T19:10:47;9.00;;;8.30;;
23590;SDS011;11973;52.098;7.582;2023-11-22T19:13:12;16.35;;;14.85;;
23590;SDS011;11973;52.098;7.582;2023-11-22T19:15:42;15.40;;;13.57;;
23590;SDS011;11973;52.098;7.582;2023-11-22T19:18:11;10.40;;;9.60;;
23590;SDS011;11973;52.098;7.582;2023-11-22T19:20:37;11.90;;;10.90;;
23590;SDS011;11973;52.098;7.582;2023-11-22T19:23:04;9.25;;;8.45;;
23590;SDS011;11973;52.098;7.582;2023-11-22T19:25:30;9.93;;;9.18;;
23590;SDS011;11973;52.098;7.582;2023-11-22T19:27:58;13.90;;;12.40;;